sensor_id;sensor_type;location;lat;lon;timestamp;pressure;altitude;pressure_sealevel;temperature;humidity
58018;BME280;43810;50.860;19.226;2022-10-16T00:00:53;98748.53;;;13.71;71.96
58018;BME280;43810;50.860;19.226;2022-10-16T00:03:32;98757.19;;;13.65;72.33
58018;BME280;43810;50.860;19.226;2022-10-16T00:05:59;98749.44;;;13.60;72.59
58018;BME280;43810;50.860;19.226;2022-10-16T00:08:25;98755.19;;;13.62;72.50
58018;BME280;43810;50.860;19.226;2022-10-16T00:10:51;98761.31;;;13.62;72.65
58018;BME280;43810;50.860;19.226;2022-10-16T00:13:17;98762.03;;;13.59;72.60
58018;BME280;43810;50.860;19.226;2022-10-16T00:15:45;98752.03;;;13.56;73.02
58018;BME280;43810;50.860;19.226;2022-10-16T00:18:12;98749.00;;;13.58;72.92
58018;BME280;43810;50.860;19.226;2022-10-16T00:20:39;98743.38;;;13.63;72.72
58018;BME280;43810;50.860;19.226;2022-10-16T00:23:05;98754.06;;;13.63;72.81
58018;BME280;43810;50.860;19.226;2022-10-16T00:25:31;98752.94;;;13.64;72.64
58018;BME280;43810;50.860;19.226;2022-10-16T00:28:00;98750.63;;;13.62;72.82
58018;BME280;43810;50.860;19.226;2022-10-16T00:30:26;98747.47;;;13.57;72.80
58018;BME280;43810;50.860;19.226;2022-10-16T00:32:53;98753.94;;;13.56;72.88
58018;BME280;43810;50.860;19.226;2022-10-16T00:35:19;98745.78;;;13.49;73.18
58018;BME280;43810;50.860;19.226;2022-10-16T00:37:45;98746.81;;;13.44;73.18
58018;BME280;43810;50.860;19.226;2022-10-16T00:40:10;98751.56;;;13.35;73.42
58018;BME280;43810;50.860;19.226;2022-10-16T00:42:37;98749.09;;;13.26;73.68
58018;BME280;43810;50.860;19.226;2022-10-16T00:45:03;98757.88;;;13.11;74.08
58018;BME280;43810;50.860;19.226;2022-10-16T00:47:34;98761.66;;;12.94;74.47
58018;BME280;43810;50.860;19.226;2022-10-16T00:50:13;98761.16;;;12.89;74.73
58018;BME280;43810;50.860;19.226;2022-10-16T00:52:45;98759.16;;;12.86;74.99
58018;BME280;43810;50.860;19.226;2022-10-16T00:55:12;98773.13;;;12.79;75.08
58018;BME280;43810;50.860;19.226;2022-10-16T00:57:39;98770.72;;;12.74;75.47
58018;BME280;43810;50.860;19.226;2022-10-16T01:00:07;98773.66;;;12.69;75.60
58018;BME280;43810;50.860;19.226;2022-10-16T01:02:33;98770.19;;;12.68;75.61
58018;BME280;43810;50.860;19.226;2022-10-16T01:04:59;98774.66;;;12.64;75.84
58018;BME280;43810;50.860;19.226;2022-10-16T01:20:42;98772.00;;;12.96;74.43
58018;BME280;43810;50.860;19.226;2022-10-16T01:31:35;98771.84;;;13.20;73.74
58018;BME280;43810;50.860;19.226;2022-10-16T01:34:15;98766.06;;;13.18;73.96
58018;BME280;43810;50.860;19.226;2022-10-16T01:36:48;98760.38;;;13.20;73.82
58018;BME280;43810;50.860;19.226;2022-10-16T01:39:20;98762.38;;;13.23;73.61
58018;BME280;43810;50.860;19.226;2022-10-16T01:41:51;98773.22;;;13.30;73.14
58018;BME280;43810;50.860;19.226;2022-10-16T01:44:22;98778.31;;;13.35;73.05
58018;BME280;43810;50.860;19.226;2022-10-16T01:46:52;98770.53;;;13.30;73.21
58018;BME280;43810;50.860;19.226;2022-10-16T01:49:21;98766.66;;;13.27;73.37
58018;BME280;43810;50.860;19.226;2022-10-16T01:51:52;98769.31;;;13.27;72.92
58018;BME280;43810;50.860;19.226;2022-10-16T01:54:20;98766.31;;;13.13;73.37
58018;BME280;43810;50.860;19.226;2022-10-16T01:56:48;98764.69;;;13.09;73.45
58018;BME280;43810;50.860;19.226;2022-10-16T01:59:19;98771.16;;;12.92;74.00
58018;BME280;43810;50.860;19.226;2022-10-16T02:01:49;98769.34;;;12.80;74.40
58018;BME280;43810;50.860;19.226;2022-10-16T02:04:26;98775.28;;;12.74;74.49
58018;BME280;43810;50.860;19.226;2022-10-16T02:06:53;98776.22;;;12.65;74.95
58018;BME280;43810;50.860;19.226;2022-10-16T02:09:19;98769.66;;;12.63;74.70
58018;BME280;43810;50.860;19.226;2022-10-16T02:11:45;98777.31;;;12.49;75.34
58018;BME280;43810;50.860;19.226;2022-10-16T02:14:11;98769.03;;;12.38;75.55
58018;BME280;43810;50.860;19.226;2022-10-16T02:16:45;98779.47;;;12.43;75.42
58018;BME280;43810;50.860;19.226;2022-10-16T02:19:17;98769.47;;;12.40;75.54
58018;BME280;43810;50.860;19.226;2022-10-16T02:21:58;98768.84;;;12.31;75.86
58018;BME280;43810;50.860;19.226;2022-10-16T02:24:39;98781.63;;;12.25;75.94
58018;BME280;43810;50.860;19.226;2022-10-16T02:27:19;98779.91;;;12.17;76.31
58018;BME280;43810;50.860;19.226;2022-10-16T02:29:54;98782.91;;;12.16;76.60
58018;BME280;43810;50.860;19.226;2022-10-16T02:32:28;98789.69;;;12.13;76.53
58018;BME280;43810;50.860;19.226;2022-10-16T02:34:56;98781.59;;;12.10;76.62
58018;BME280;43810;50.860;19.226;2022-10-16T02:37:23;98786.00;;;12.18;76.54
58018;BME280;43810;50.860;19.226;2022-10-16T02:39:50;98783.88;;;12.23;76.36
58018;BME280;43810;50.860;19.226;2022-10-16T02:42:17;98782.75;;;12.24;76.50
58018;BME280;43810;50.860;19.226;2022-10-16T02:44:44;98791.53;;;12.25;76.56
58018;BME280;43810;50.860;19.226;2022-10-16T02:47:09;98796.81;;;12.37;75.97
58018;BME280;43810;50.860;19.226;2022-10-16T02:49:35;98799.69;;;12.44;75.93
58018;BME280;43810;50.860;19.226;2022-10-16T02:52:01;98806.31;;;12.50;75.76
58018;BME280;43810;50.860;19.226;2022-10-16T02:54:26;98810.38;;;12.60;75.33
58018;BME280;43810;50.860;19.226;2022-10-16T02:56:52;98810.16;;;12.65;75.17
58018;BME280;43810;50.860;19.226;2022-10-16T02:59:18;98803.88;;;12.73;75.07
58018;BME280;43810;50.860;19.226;2022-10-16T03:01:43;98813.34;;;12.70;75.10
58018;BME280;43810;50.860;19.226;2022-10-16T03:04:09;98813.69;;;12.85;74.67
58018;BME280;43810;50.860;19.226;2022-10-16T03:06:35;98799.66;;;12.88;74.70
58018;BME280;43810;50.860;19.226;2022-10-16T03:09:01;98802.34;;;12.88;74.78
58018;BME280;43810;50.860;19.226;2022-10-16T03:11:27;98811.81;;;13.01;74.06
58018;BME280;43810;50.860;19.226;2022-10-16T03:13:53;98807.06;;;13.10;73.70
58018;BME280;43810;50.860;19.226;2022-10-16T03:16:19;98811.31;;;13.11;73.54
58018;BME280;43810;50.860;19.226;2022-10-16T03:18:48;98806.75;;;13.12;73.70
58018;BME280;43810;50.860;19.226;2022-10-16T03:21:15;98816.66;;;13.11;73.28
58018;BME280;43810;50.860;19.226;2022-10-16T03:23:41;98810.09;;;13.09;73.56
58018;BME280;43810;50.860;19.226;2022-10-16T03:26:06;98808.28;;;12.97;73.73
58018;BME280;43810;50.860;19.226;2022-10-16T03:28:32;98809.22;;;12.89;74.01
58018;BME280;43810;50.860;19.226;2022-10-16T03:30:58;98821.03;;;12.88;74.20
58018;BME280;43810;50.860;19.226;2022-10-16T03:33:24;98821.28;;;12.83;74.49
58018;BME280;43810;50.860;19.226;2022-10-16T03:35:53;98827.13;;;12.73;74.66
58018;BME280;43810;50.860;19.226;2022-10-16T03:38:20;98825.56;;;12.72;74.79
58018;BME280;43810;50.860;19.226;2022-10-16T03:40:46;98826.28;;;12.68;75.21
58018;BME280;43810;50.860;19.226;2022-10-16T03:43:11;98823.94;;;12.67;75.16
58018;BME280;43810;50.860;19.226;2022-10-16T03:45:37;98838.69;;;12.77;74.76
58018;BME280;43810;50.860;19.226;2022-10-16T03:48:03;98835.91;;;12.73;75.04
58018;BME280;43810;50.860;19.226;2022-10-16T03:50:29;98835.34;;;12.80;74.78
58018;BME280;43810;50.860;19.226;2022-10-16T03:52:55;98827.22;;;12.76;75.18
58018;BME280;43810;50.860;19.226;2022-10-16T03:55:21;98832.91;;;12.75;74.97
58018;BME280;43810;50.860;19.226;2022-10-16T03:57:47;98841.09;;;12.82;74.99
58018;BME280;43810;50.860;19.226;2022-10-16T04:00:12;98844.38;;;12.91;74.85
58018;BME280;43810;50.860;19.226;2022-10-16T04:02:38;98836.97;;;13.00;74.24
58018;BME280;43810;50.860;19.226;2022-10-16T04:05:04;98839.81;;;12.91;74.33
58018;BME280;43810;50.860;19.226;2022-10-16T04:07:30;98834.13;;;12.93;74.58
58018;BME280;43810;50.860;19.226;2022-10-16T04:09:56;98835.66;;;12.94;74.89
58018;BME280;43810;50.860;19.226;2022-10-16T04:12:23;98841.34;;;12.92;74.80
58018;BME280;43810;50.860;19.226;2022-10-16T04:14:48;98842.06;;;12.89;75.01
58018;BME280;43810;50.860;19.226;2022-10-16T04:17:14;98844.47;;;12.94;74.94
58018;BME280;43810;50.860;19.226;2022-10-16T04:19:40;98845.34;;;12.98;74.72
58018;BME280;43810;50.860;19.226;2022-10-16T04:22:06;98838.34;;;12.94;74.76
58018;BME280;43810;50.860;19.226;2022-10-16T04:24:31;98834.31;;;13.00;74.69
58018;BME280;43810;50.860;19.226;2022-10-16T04:26:57;98830.75;;;12.96;74.76
58018;BME280;43810;50.860;19.226;2022-10-16T04:29:23;98830.25;;;12.90;74.91
58018;BME280;43810;50.860;19.226;2022-10-16T04:31:49;98832.06;;;12.86;75.21
58018;BME280;43810;50.860;19.226;2022-10-16T04:34:15;98836.38;;;12.91;75.15
58018;BME280;43810;50.860;19.226;2022-10-16T04:36:40;98840.78;;;12.99;74.77
58018;BME280;43810;50.860;19.226;2022-10-16T04:39:06;98832.84;;;13.02;74.75
58018;BME280;43810;50.860;19.226;2022-10-16T04:41:32;98829.91;;;12.92;74.73
58018;BME280;43810;50.860;19.226;2022-10-16T04:43:57;98831.72;;;12.88;75.08
58018;BME280;43810;50.860;19.226;2022-10-16T04:46:23;98841.00;;;12.94;74.74
58018;BME280;43810;50.860;19.226;2022-10-16T04:48:49;98844.47;;;12.94;74.66
58018;BME280;43810;50.860;19.226;2022-10-16T04:51:14;98845.06;;;12.88;74.99
58018;BME280;43810;50.860;19.226;2022-10-16T04:53:40;98841.72;;;12.91;75.07
58018;BME280;43810;50.860;19.226;2022-10-16T04:56:06;98831.19;;;12.82;75.04
58018;BME280;43810;50.860;19.226;2022-10-16T04:58:32;98833.84;;;12.82;74.99
58018;BME280;43810;50.860;19.226;2022-10-16T05:00:58;98835.41;;;12.67;75.43
58018;BME280;43810;50.860;19.226;2022-10-16T05:03:24;98829.06;;;12.60;75.50
58018;BME280;43810;50.860;19.226;2022-10-16T05:05:50;98821.56;;;12.50;76.00
58018;BME280;43810;50.860;19.226;2022-10-16T05:08:16;98827.06;;;12.41;76.25
58018;BME280;43810;50.860;19.226;2022-10-16T05:10:42;98832.09;;;12.30;76.51
58018;BME280;43810;50.860;19.226;2022-10-16T05:13:09;98831.31;;;12.30;76.69
58018;BME280;43810;50.860;19.226;2022-10-16T05:15:34;98838.78;;;12.24;76.89
58018;BME280;43810;50.860;19.226;2022-10-16T05:18:00;98842.38;;;12.16;77.26
58018;BME280;43810;50.860;19.226;2022-10-16T05:20:27;98840.25;;;12.22;77.33
58018;BME280;43810;50.860;19.226;2022-10-16T05:22:52;98856.16;;;12.18;77.36
58018;BME280;43810;50.860;19.226;2022-10-16T05:25:18;98845.59;;;12.22;77.29
58018;BME280;43810;50.860;19.226;2022-10-16T05:27:48;98853.69;;;12.25;77.10
58018;BME280;43810;50.860;19.226;2022-10-16T05:30:15;98856.03;;;12.15;77.51
58018;BME280;43810;50.860;19.226;2022-10-16T05:32:41;98862.59;;;12.17;77.66
58018;BME280;43810;50.860;19.226;2022-10-16T05:35:07;98863.56;;;12.25;77.41
58018;BME280;43810;50.860;19.226;2022-10-16T05:37:32;98867.25;;;12.32;77.00
58018;BME280;43810;50.860;19.226;2022-10-16T05:39:58;98863.09;;;12.35;76.91
58018;BME280;43810;50.860;19.226;2022-10-16T05:42:24;98872.75;;;12.40;76.93
58018;BME280;43810;50.860;19.226;2022-10-16T05:44:50;98870.38;;;12.50;76.63
58018;BME280;43810;50.860;19.226;2022-10-16T05:47:15;98874.94;;;12.50;76.52
58018;BME280;43810;50.860;19.226;2022-10-16T05:49:41;98881.59;;;12.56;76.69
58018;BME280;43810;50.860;19.226;2022-10-16T05:52:07;98881.00;;;12.62;76.42
58018;BME280;43810;50.860;19.226;2022-10-16T05:54:33;98888.53;;;12.73;76.27
58018;BME280;43810;50.860;19.226;2022-10-16T05:56:58;98885.53;;;12.74;75.89
58018;BME280;43810;50.860;19.226;2022-10-16T05:59:24;98891.75;;;12.78;75.59
58018;BME280;43810;50.860;19.226;2022-10-16T06:01:49;98899.31;;;12.76;75.70
58018;BME280;43810;50.860;19.226;2022-10-16T06:04:15;98890.91;;;12.90;75.10
58018;BME280;43810;50.860;19.226;2022-10-16T06:06:41;98903.53;;;12.77;75.53
58018;BME280;43810;50.860;19.226;2022-10-16T06:09:07;98904.25;;;12.90;75.15
58018;BME280;43810;50.860;19.226;2022-10-16T06:11:33;98906.94;;;12.90;75.20
58018;BME280;43810;50.860;19.226;2022-10-16T06:14:00;98900.81;;;12.89;75.27
58018;BME280;43810;50.860;19.226;2022-10-16T06:16:33;98909.44;;;12.98;74.75
58018;BME280;43810;50.860;19.226;2022-10-16T06:19:00;98904.22;;;13.02;74.74
58018;BME280;43810;50.860;19.226;2022-10-16T06:21:27;98909.00;;;12.96;74.68
58018;BME280;43810;50.860;19.226;2022-10-16T06:23:54;98906.84;;;13.14;74.29
58018;BME280;43810;50.860;19.226;2022-10-16T06:26:24;98916.81;;;13.17;74.33
58018;BME280;43810;50.860;19.226;2022-10-16T06:28:50;98915.91;;;13.25;74.08
58018;BME280;43810;50.860;19.226;2022-10-16T06:31:16;98912.28;;;13.33;73.77
58018;BME280;43810;50.860;19.226;2022-10-16T06:33:43;98923.22;;;13.28;74.06
58018;BME280;43810;50.860;19.226;2022-10-16T06:36:09;98923.13;;;13.40;73.73
58018;BME280;43810;50.860;19.226;2022-10-16T06:38:36;98923.16;;;13.56;73.08
58018;BME280;43810;50.860;19.226;2022-10-16T06:41:03;98927.19;;;13.66;72.89
58018;BME280;43810;50.860;19.226;2022-10-16T06:43:29;98928.31;;;13.81;72.59
58018;BME280;43810;50.860;19.226;2022-10-16T06:45:59;98926.47;;;14.00;72.15
58018;BME280;43810;50.860;19.226;2022-10-16T06:48:25;98926.44;;;14.16;71.51
58018;BME280;43810;50.860;19.226;2022-10-16T06:51:05;98935.66;;;14.19;71.01
58018;BME280;43810;50.860;19.226;2022-10-16T06:53:34;98943.22;;;14.32;70.59
58018;BME280;43810;50.860;19.226;2022-10-16T06:56:12;98945.59;;;14.53;70.11
58018;BME280;43810;50.860;19.226;2022-10-16T06:58:41;98958.44;;;14.63;70.04
58018;BME280;43810;50.860;19.226;2022-10-16T07:01:07;98959.13;;;14.79;69.09
58018;BME280;43810;50.860;19.226;2022-10-16T07:03:33;98956.97;;;14.85;68.87
58018;BME280;43810;50.860;19.226;2022-10-16T07:06:02;98965.28;;;14.99;69.47
58018;BME280;43810;50.860;19.226;2022-10-16T07:08:36;98959.97;;;15.22;68.34
58018;BME280;43810;50.860;19.226;2022-10-16T07:11:05;98969.09;;;15.40;67.82
58018;BME280;43810;50.860;19.226;2022-10-16T07:13:38;98968.91;;;15.52;66.45
58018;BME280;43810;50.860;19.226;2022-10-16T07:18:35;98964.81;;;15.58;65.59
58018;BME280;43810;50.860;19.226;2022-10-16T07:21:06;98970.91;;;15.55;66.12
58018;BME280;43810;50.860;19.226;2022-10-16T07:23:33;98967.09;;;15.56;65.83
58018;BME280;43810;50.860;19.226;2022-10-16T07:25:59;98982.06;;;15.57;66.72
58018;BME280;43810;50.860;19.226;2022-10-16T07:28:26;98979.59;;;15.72;66.09
58018;BME280;43810;50.860;19.226;2022-10-16T07:30:51;98976.28;;;15.78;65.25
58018;BME280;43810;50.860;19.226;2022-10-16T07:33:17;98979.06;;;15.85;65.48
58018;BME280;43810;50.860;19.226;2022-10-16T07:35:53;98984.59;;;15.96;64.56
58018;BME280;43810;50.860;19.226;2022-10-16T07:38:20;98979.72;;;16.02;65.24
58018;BME280;43810;50.860;19.226;2022-10-16T07:40:45;98973.75;;;16.15;65.08
58018;BME280;43810;50.860;19.226;2022-10-16T07:43:12;98976.53;;;16.49;63.92
58018;BME280;43810;50.860;19.226;2022-10-16T07:45:47;98983.13;;;16.81;63.16
58018;BME280;43810;50.860;19.226;2022-10-16T07:48:13;98986.94;;;17.14;61.56
58018;BME280;43810;50.860;19.226;2022-10-16T07:50:39;98987.19;;;17.38;60.82
58018;BME280;43810;50.860;19.226;2022-10-16T07:53:07;98983.19;;;17.62;60.81
58018;BME280;43810;50.860;19.226;2022-10-16T07:55:33;98991.03;;;17.75;60.20
58018;BME280;43810;50.860;19.226;2022-10-16T07:57:59;98993.34;;;17.76;59.87
58018;BME280;43810;50.860;19.226;2022-10-16T08:00:24;98991.88;;;17.86;59.50
58018;BME280;43810;50.860;19.226;2022-10-16T08:02:50;98989.19;;;17.89;61.07
58018;BME280;43810;50.860;19.226;2022-10-16T08:05:16;98997.84;;;18.09;60.32
58018;BME280;43810;50.860;19.226;2022-10-16T08:07:42;99001.06;;;18.32;59.26
58018;BME280;43810;50.860;19.226;2022-10-16T08:10:16;98994.38;;;18.12;58.62
58018;BME280;43810;50.860;19.226;2022-10-16T08:12:42;98988.13;;;18.01;60.09
58018;BME280;43810;50.860;19.226;2022-10-16T08:15:08;98986.72;;;18.18;59.45
58018;BME280;43810;50.860;19.226;2022-10-16T08:17:34;99001.69;;;18.12;58.81
58018;BME280;43810;50.860;19.226;2022-10-16T08:19:59;98992.06;;;18.14;60.15
58018;BME280;43810;50.860;19.226;2022-10-16T08:22:25;99001.09;;;18.39;58.96
58018;BME280;43810;50.860;19.226;2022-10-16T08:24:51;98989.88;;;18.30;58.32
58018;BME280;43810;50.860;19.226;2022-10-16T08:27:17;98994.22;;;18.49;59.02
58018;BME280;43810;50.860;19.226;2022-10-16T08:29:42;98993.19;;;18.71;58.92
58018;BME280;43810;50.860;19.226;2022-10-16T08:32:08;98996.34;;;18.80;57.95
58018;BME280;43810;50.860;19.226;2022-10-16T08:34:34;98994.47;;;18.92;57.09
58018;BME280;43810;50.860;19.226;2022-10-16T08:36:59;98998.31;;;18.91;58.13
58018;BME280;43810;50.860;19.226;2022-10-16T08:39:25;98999.50;;;19.07;57.35
58018;BME280;43810;50.860;19.226;2022-10-16T08:50:27;99013.50;;;19.38;56.58
58018;BME280;43810;50.860;19.226;2022-10-16T08:52:54;99016.91;;;19.21;57.98
58018;BME280;43810;50.860;19.226;2022-10-16T08:55:34;99014.56;;;19.19;56.94
58018;BME280;43810;50.860;19.226;2022-10-16T08:58:10;99021.94;;;19.26;57.14
58018;BME280;43810;50.860;19.226;2022-10-16T09:00:38;99022.69;;;19.23;56.93
58018;BME280;43810;50.860;19.226;2022-10-16T09:03:14;99019.25;;;19.36;56.80
58018;BME280;43810;50.860;19.226;2022-10-16T09:06:30;99018.56;;;19.71;57.26
58018;BME280;43810;50.860;19.226;2022-10-16T09:12:01;99017.81;;;20.13;54.36
58018;BME280;43810;50.860;19.226;2022-10-16T09:22:31;99023.50;;;20.76;54.02
58018;BME280;43810;50.860;19.226;2022-10-16T09:25:00;99024.28;;;20.66;54.71
58018;BME280;43810;50.860;19.226;2022-10-16T09:27:34;99029.78;;;20.37;54.64
58018;BME280;43810;50.860;19.226;2022-10-16T09:30:14;99027.06;;;20.23;55.28
58018;BME280;43810;50.860;19.226;2022-10-16T09:32:42;99037.88;;;20.02;55.91
58018;BME280;43810;50.860;19.226;2022-10-16T09:35:16;99037.09;;;20.01;56.67
58018;BME280;43810;50.860;19.226;2022-10-16T09:37:44;99029.38;;;20.00;57.23
58018;BME280;43810;50.860;19.226;2022-10-16T09:40:26;99035.94;;;19.81;57.29
58018;BME280;43810;50.860;19.226;2022-10-16T09:43:03;99034.00;;;19.88;57.99
58018;BME280;43810;50.860;19.226;2022-10-16T09:45:32;99043.69;;;20.07;56.87
58018;BME280;43810;50.860;19.226;2022-10-16T09:47:58;99032.09;;;20.00;56.77
58018;BME280;43810;50.860;19.226;2022-10-16T09:50:28;99036.34;;;20.04;57.88
58018;BME280;43810;50.860;19.226;2022-10-16T09:53:13;99033.25;;;20.38;57.34
58018;BME280;43810;50.860;19.226;2022-10-16T09:55:52;99030.13;;;20.53;56.22
58018;BME280;43810;50.860;19.226;2022-10-16T09:58:20;99030.53;;;20.52;57.66
58018;BME280;43810;50.860;19.226;2022-10-16T10:00:52;99035.50;;;20.57;56.06
58018;BME280;43810;50.860;19.226;2022-10-16T10:03:39;99032.44;;;20.51;57.08
58018;BME280;43810;50.860;19.226;2022-10-16T10:06:25;99037.47;;;20.53;56.05
58018;BME280;43810;50.860;19.226;2022-10-16T10:09:00;99035.03;;;20.94;54.85
58018;BME280;43810;50.860;19.226;2022-10-16T10:14:31;99030.97;;;22.00;52.80
58018;BME280;43810;50.860;19.226;2022-10-16T10:19:56;99037.66;;;22.33;51.88
58018;BME280;43810;50.860;19.226;2022-10-16T10:22:44;99045.66;;;22.47;51.13
58018;BME280;43810;50.860;19.226;2022-10-16T10:27:43;99029.03;;;22.83;49.82
58018;BME280;43810;50.860;19.226;2022-10-16T10:35:42;99027.00;;;22.12;51.71
58018;BME280;43810;50.860;19.226;2022-10-16T10:41:24;99028.09;;;22.18;51.54
58018;BME280;43810;50.860;19.226;2022-10-16T10:43:43;99025.00;;;22.16;52.65
58018;BME280;43810;50.860;19.226;2022-10-16T10:46:19;99024.84;;;22.33;52.24
58018;BME280;43810;50.860;19.226;2022-10-16T10:56:50;99033.22;;;21.53;53.70
58018;BME280;43810;50.860;19.226;2022-10-16T11:01:56;99021.59;;;22.08;50.71
58018;BME280;43810;50.860;19.226;2022-10-16T11:07:28;99025.16;;;22.43;50.41
58018;BME280;43810;50.860;19.226;2022-10-16T11:09:59;99031.34;;;22.43;50.42
58018;BME280;43810;50.860;19.226;2022-10-16T11:12:38;99037.75;;;22.22;51.43
58018;BME280;43810;50.860;19.226;2022-10-16T11:15:18;99039.19;;;22.34;52.05
58018;BME280;43810;50.860;19.226;2022-10-16T11:18:12;99037.13;;;22.45;50.91
58018;BME280;43810;50.860;19.226;2022-10-16T11:20:57;99039.59;;;22.70;50.87
58018;BME280;43810;50.860;19.226;2022-10-16T11:23:35;99042.41;;;22.97;51.31
58018;BME280;43810;50.860;19.226;2022-10-16T11:26:11;99045.03;;;23.04;49.82
58018;BME280;43810;50.860;19.226;2022-10-16T11:28:49;99041.53;;;23.07;48.95
58018;BME280;43810;50.860;19.226;2022-10-16T11:31:22;99036.91;;;22.66;49.50
58018;BME280;43810;50.860;19.226;2022-10-16T11:34:24;99046.25;;;22.62;49.70
58018;BME280;43810;50.860;19.226;2022-10-16T11:37:11;99031.97;;;22.58;50.28
58018;BME280;43810;50.860;19.226;2022-10-16T11:39:38;99032.66;;;22.28;49.27
58018;BME280;43810;50.860;19.226;2022-10-16T11:42:11;99032.13;;;22.02;50.84
58018;BME280;43810;50.860;19.226;2022-10-16T11:47:45;99035.31;;;21.83;51.28
58018;BME280;43810;50.860;19.226;2022-10-16T11:52:44;99044.13;;;21.98;50.18
58018;BME280;43810;50.860;19.226;2022-10-16T11:55:24;99025.22;;;21.91;52.12
58018;BME280;43810;50.860;19.226;2022-10-16T11:57:54;99035.84;;;21.64;52.58
58018;BME280;43810;50.860;19.226;2022-10-16T12:00:35;99040.00;;;21.79;52.30
58018;BME280;43810;50.860;19.226;2022-10-16T12:08:23;99047.84;;;21.59;51.94
58018;BME280;43810;50.860;19.226;2022-10-16T12:10:49;99051.38;;;21.56;51.94
58018;BME280;43810;50.860;19.226;2022-10-16T12:13:30;99046.06;;;21.39;52.67
58018;BME280;43810;50.860;19.226;2022-10-16T12:16:22;99047.53;;;21.54;52.93
58018;BME280;43810;50.860;19.226;2022-10-16T12:18:49;99047.31;;;21.86;50.91
58018;BME280;43810;50.860;19.226;2022-10-16T12:21:16;99052.84;;;21.68;51.33
58018;BME280;43810;50.860;19.226;2022-10-16T12:23:52;99057.72;;;21.28;51.83
58018;BME280;43810;50.860;19.226;2022-10-16T12:26:37;99051.63;;;20.92;51.99
58018;BME280;43810;50.860;19.226;2022-10-16T12:29:14;99039.38;;;20.56;54.83
58018;BME280;43810;50.860;19.226;2022-10-16T12:31:46;99046.72;;;20.63;54.98
58018;BME280;43810;50.860;19.226;2022-10-16T12:34:38;99060.97;;;20.70;53.69
58018;BME280;43810;50.860;19.226;2022-10-16T12:37:28;99050.09;;;20.95;53.68
58018;BME280;43810;50.860;19.226;2022-10-16T12:39:57;99059.31;;;21.08;54.32
58018;BME280;43810;50.860;19.226;2022-10-16T12:44:52;99061.44;;;21.52;53.19
58018;BME280;43810;50.860;19.226;2022-10-16T12:47:46;99061.94;;;21.95;50.98
58018;BME280;43810;50.860;19.226;2022-10-16T12:50:29;99053.25;;;22.22;50.26
58018;BME280;43810;50.860;19.226;2022-10-16T12:53:16;99053.56;;;22.68;50.60
58018;BME280;43810;50.860;19.226;2022-10-16T12:55:55;99060.84;;;22.75;49.76
58018;BME280;43810;50.860;19.226;2022-10-16T13:01:34;99050.19;;;22.16;50.09
58018;BME280;43810;50.860;19.226;2022-10-16T13:08:27;99057.38;;;21.19;52.46
58018;BME280;43810;50.860;19.226;2022-10-16T13:10:28;99061.53;;;21.35;53.03
58018;BME280;43810;50.860;19.226;2022-10-16T13:15:41;99050.50;;;21.70;51.03
58018;BME280;43810;50.860;19.226;2022-10-16T13:21:24;99045.19;;;22.11;50.67
58018;BME280;43810;50.860;19.226;2022-10-16T13:28:59;99052.22;;;21.43;52.80
58018;BME280;43810;50.860;19.226;2022-10-16T13:31:26;99054.66;;;21.12;53.21
58018;BME280;43810;50.860;19.226;2022-10-16T13:33:59;99054.34;;;21.00;54.41
58018;BME280;43810;50.860;19.226;2022-10-16T13:36:30;99064.00;;;20.90;54.42
58018;BME280;43810;50.860;19.226;2022-10-16T13:39:27;99053.19;;;20.97;54.59
58018;BME280;43810;50.860;19.226;2022-10-16T13:44:51;99060.75;;;21.38;53.47
58018;BME280;43810;50.860;19.226;2022-10-16T13:47:18;99054.72;;;21.75;52.68
58018;BME280;43810;50.860;19.226;2022-10-16T13:49:44;99054.91;;;22.09;51.33
58018;BME280;43810;50.860;19.226;2022-10-16T13:52:20;99059.53;;;22.12;51.38
58018;BME280;43810;50.860;19.226;2022-10-16T13:54:47;99056.56;;;21.92;51.46
58018;BME280;43810;50.860;19.226;2022-10-16T13:57:16;99065.97;;;21.69;51.94
58018;BME280;43810;50.860;19.226;2022-10-16T13:59:42;99062.72;;;21.34;53.24
58018;BME280;43810;50.860;19.226;2022-10-16T14:02:26;99073.56;;;21.26;53.66
58018;BME280;43810;50.860;19.226;2022-10-16T14:04:53;99067.09;;;20.92;54.29
58018;BME280;43810;50.860;19.226;2022-10-16T14:07:27;99069.91;;;20.60;54.87
58018;BME280;43810;50.860;19.226;2022-10-16T14:09:55;99083.03;;;20.12;55.65
58018;BME280;43810;50.860;19.226;2022-10-16T14:12:22;99088.81;;;20.00;56.46
58018;BME280;43810;50.860;19.226;2022-10-16T14:14:51;99090.72;;;19.88;57.34
58018;BME280;43810;50.860;19.226;2022-10-16T14:17:26;99091.50;;;19.89;57.95
58018;BME280;43810;50.860;19.226;2022-10-16T14:19:55;99097.31;;;20.05;57.33
58018;BME280;43810;50.860;19.226;2022-10-16T14:24:56;99093.84;;;20.19;56.64
58018;BME280;43810;50.860;19.226;2022-10-16T14:30:17;99084.19;;;20.43;56.78
58018;BME280;43810;50.860;19.226;2022-10-16T14:32:54;99084.97;;;20.50;55.79
58018;BME280;43810;50.860;19.226;2022-10-16T14:35:26;99084.94;;;20.54;55.82
58018;BME280;43810;50.860;19.226;2022-10-16T14:37:54;99092.69;;;20.63;55.61
58018;BME280;43810;50.860;19.226;2022-10-16T14:40:24;99100.38;;;20.68;55.57
58018;BME280;43810;50.860;19.226;2022-10-16T14:42:50;99100.78;;;20.77;56.46
58018;BME280;43810;50.860;19.226;2022-10-16T14:45:28;99099.22;;;20.76;55.55
58018;BME280;43810;50.860;19.226;2022-10-16T14:47:57;99101.56;;;20.56;55.86
58018;BME280;43810;50.860;19.226;2022-10-16T14:50:24;99105.44;;;20.44;56.23
58018;BME280;43810;50.860;19.226;2022-10-16T14:52:50;99097.31;;;20.19;56.29
58018;BME280;43810;50.860;19.226;2022-10-16T14:55:16;99103.47;;;19.99;56.98
58018;BME280;43810;50.860;19.226;2022-10-16T14:57:43;99103.06;;;19.82;57.48